Kerby, Oregon
Current Conditions -  °F | °C
As of 3:56 PM on Tuesday 25 Nov 2014 (Local Time) from KSXT Reporting Station
Clear Clear  
Wind Chill: 44°   Ceiling: Unl
Heat Index: 48°   Visibility: 10mi
Dew Point: 46°   Wind: 8mph
Humidity: 93%   Direction: 130°SE
Pressure: 30.41"   Gusts: NA
Location:  42.19°N, 123.65°W
Report Text: KSXT 252356Z AUTO 13007KT 10SM CLR 09/08 A3041 RMK AO2 SLP290 T00890078 10117 20089 56007
Loading
Personal Weather Stations






























Interactive Weather Map New forecast layout! Learn more

10-Day Weather Forecast

Advertisements
Track Severe Weather on mobile